createdAt,value
2018-10-12T00:02:02.179Z,34.40
2018-10-12T00:04:35.050Z,34.53
2018-10-12T00:07:09.001Z,24.87
2018-10-12T00:09:41.667Z,27.50
2018-10-12T00:12:20.032Z,17.60
2018-10-12T00:14:53.844Z,16.63
2018-10-12T00:17:26.399Z,22.17
2018-10-12T00:19:59.325Z,10.07
2018-10-12T00:22:32.176Z,9.63
2018-10-12T00:25:08.319Z,11.27
2018-10-12T00:27:40.652Z,10.07
2018-10-12T00:30:13.731Z,14.93
2018-10-12T00:32:48.709Z,19.77
2018-10-12T00:35:21.441Z,18.30
2018-10-12T00:37:55.053Z,20.73
2018-10-12T00:40:28.651Z,13.37
2018-10-12T00:43:01.468Z,11.97
2018-10-12T00:45:35.042Z,15.20
2018-10-12T00:48:07.627Z,20.53
2018-10-12T00:50:40.728Z,22.63
2018-10-12T00:53:13.673Z,30.37
2018-10-12T00:55:46.226Z,22.97
2018-10-12T00:58:20.723Z,26.73
2018-10-12T01:00:54.254Z,23.63
2018-10-12T01:03:26.922Z,23.60
2018-10-12T01:05:59.786Z,13.07
2018-10-12T01:08:33.508Z,13.30
2018-10-12T01:11:06.119Z,15.10
2018-10-12T01:13:38.532Z,12.00
2018-10-12T01:16:13.839Z,16.53
2018-10-12T01:18:47.742Z,27.63
2018-10-12T01:21:20.952Z,34.87
2018-10-12T01:23:54.779Z,34.13
2018-10-12T01:26:27.437Z,29.87
2018-10-12T01:29:00.402Z,34.43
2018-10-12T01:31:33.409Z,42.63
2018-10-12T01:34:06.297Z,42.10
2018-10-12T01:36:39.995Z,21.17
2018-10-12T01:39:13.063Z,16.47
2018-10-12T01:41:47.606Z,14.20
2018-10-12T01:44:21.298Z,13.70
2018-10-12T01:46:54.894Z,13.47
2018-10-12T01:49:27.424Z,13.50
2018-10-12T01:52:00.743Z,14.47
2018-10-12T01:54:33.290Z,14.57
2018-10-12T01:57:06.095Z,16.77
2018-10-12T01:59:38.521Z,12.80
2018-10-12T02:02:11.522Z,11.60
2018-10-12T02:04:43.979Z,12.07
2018-10-12T02:07:28.399Z,12.17
2018-10-12T02:10:02.102Z,13.77
2018-10-12T02:12:35.368Z,11.70
2018-10-12T02:15:08.380Z,12.23
2018-10-12T02:17:41.466Z,13.17
2018-10-12T02:20:16.009Z,13.07
2018-10-12T02:22:49.034Z,18.43
2018-10-12T02:25:22.202Z,21.17
2018-10-12T02:27:55.272Z,21.50
2018-10-12T02:30:28.293Z,20.80
2018-10-12T02:33:01.662Z,19.63
2018-10-12T02:35:38.304Z,18.47
2018-10-12T02:38:11.932Z,16.23
2018-10-12T02:40:46.832Z,13.33
2018-10-12T02:43:21.297Z,13.67
2018-10-12T02:45:55.807Z,14.63
2018-10-12T02:48:29.852Z,14.67
2018-10-12T02:51:04.585Z,15.80
2018-10-12T02:53:39.430Z,13.50
2018-10-12T02:56:19.483Z,11.57
2018-10-12T02:58:53.928Z,10.10
2018-10-12T03:01:27.926Z,11.23
2018-10-12T03:04:01.556Z,15.10
2018-10-12T03:09:55.745Z,8.60
2018-10-12T03:12:29.371Z,7.97
2018-10-12T03:15:02.924Z,13.40
2018-10-12T03:17:36.470Z,19.93
2018-10-12T03:20:10.046Z,22.50
2018-10-12T03:22:43.375Z,22.30
2018-10-12T03:25:17.220Z,23.20
2018-10-12T03:27:59.791Z,25.87
2018-10-12T03:31:01.170Z,29.53
2018-10-12T03:33:34.270Z,30.00
2018-10-12T03:36:08.271Z,27.37
2018-10-12T03:38:44.816Z,27.33
2018-10-12T03:44:49.162Z,23.53
2018-10-12T03:47:22.417Z,21.40
2018-10-12T03:49:55.085Z,38.07
2018-10-12T03:52:27.515Z,29.37
2018-10-12T03:55:00.122Z,24.90
2018-10-12T03:57:32.563Z,27.07
2018-10-12T04:00:05.732Z,24.90
2018-10-12T04:02:38.275Z,24.70
2018-10-12T04:08:32.534Z,25.30
2018-10-12T04:11:05.583Z,24.67
2018-10-12T04:14:02.659Z,24.73
2018-10-12T04:16:35.565Z,21.67
2018-10-12T04:19:08.990Z,22.23
2018-10-12T04:21:41.854Z,20.90
2018-10-12T04:24:16.078Z,21.33
2018-10-12T04:26:50.036Z,20.90
2018-10-12T04:29:22.795Z,20.40
2018-10-12T04:31:55.429Z,19.67
2018-10-12T04:34:28.130Z,19.53
2018-10-12T04:37:01.491Z,19.00
2018-10-12T04:42:54.890Z,21.23
2018-10-12T04:45:28.374Z,23.50
2018-10-12T04:48:01.479Z,22.27
2018-10-12T04:50:35.448Z,23.07
2018-10-12T04:53:08.789Z,22.30
2018-10-12T04:55:42.110Z,22.83
2018-10-12T04:58:15.533Z,23.33
2018-10-12T05:00:49.065Z,24.60
2018-10-12T05:03:23.670Z,25.93
2018-10-12T05:05:56.793Z,26.00
2018-10-12T05:08:30.305Z,25.83
2018-10-12T05:11:03.808Z,27.87
2018-10-12T05:13:37.318Z,28.13
2018-10-12T05:16:10.468Z,26.80
2018-10-12T05:18:43.303Z,26.63
2018-10-12T05:21:16.056Z,26.43
2018-10-12T05:23:49.487Z,28.87
2018-10-12T05:26:22.880Z,28.30
2018-10-12T05:28:56.162Z,29.00
2018-10-12T05:31:29.534Z,28.47
2018-10-12T05:34:02.774Z,29.23
2018-10-12T05:36:35.977Z,29.70
2018-10-12T05:39:12.945Z,26.70
2018-10-12T05:41:46.334Z,25.63
2018-10-12T05:44:19.755Z,25.17
2018-10-12T05:46:57.112Z,24.80
2018-10-12T05:49:39.531Z,25.93
2018-10-12T05:52:13.296Z,24.97
2018-10-12T05:54:46.643Z,28.07
2018-10-12T05:57:20.113Z,24.77
2018-10-12T05:59:55.310Z,26.43
2018-10-12T06:02:28.999Z,26.67
2018-10-12T06:05:02.181Z,29.37
2018-10-12T06:07:35.898Z,26.13
2018-10-12T06:10:09.123Z,25.83
2018-10-12T06:12:42.583Z,24.90
2018-10-12T06:15:15.918Z,24.27
2018-10-12T06:17:49.037Z,25.30
2018-10-12T06:20:22.442Z,24.83
2018-10-12T06:22:55.630Z,25.90
2018-10-12T06:25:29.023Z,30.20
2018-10-12T06:28:41.624Z,31.47
2018-10-12T06:31:14.815Z,31.83
2018-10-12T06:33:47.764Z,31.10
2018-10-12T06:36:20.908Z,33.20
2018-10-12T06:38:53.873Z,31.30
2018-10-12T06:41:26.848Z,30.37
2018-10-12T06:43:59.877Z,29.87
2018-10-12T06:46:32.945Z,31.90
2018-10-12T06:49:06.001Z,30.87
2018-10-12T06:51:38.850Z,29.77
2018-10-12T06:54:12.226Z,29.93
2018-10-12T06:56:48.326Z,30.87
2018-10-12T06:59:21.377Z,28.10
2018-10-12T07:01:54.692Z,27.73
2018-10-12T07:04:28.360Z,27.53
2018-10-12T07:07:01.736Z,26.90
2018-10-12T07:09:34.720Z,25.93
2018-10-12T07:12:08.010Z,25.53
2018-10-12T07:14:40.885Z,25.73
2018-10-12T07:17:14.098Z,28.90
2018-10-12T07:19:47.060Z,30.63
2018-10-12T07:22:20.203Z,30.73
2018-10-12T07:24:53.246Z,29.40
2018-10-12T07:27:26.354Z,30.40
2018-10-12T07:29:59.489Z,25.77
2018-10-12T07:32:32.608Z,25.10
2018-10-12T07:35:05.838Z,25.80
2018-10-12T07:37:39.005Z,24.97
2018-10-12T07:40:12.120Z,25.83
2018-10-12T07:42:45.254Z,23.23
2018-10-12T07:45:18.183Z,24.63
2018-10-12T07:47:51.182Z,25.10
2018-10-12T07:50:24.126Z,25.47
2018-10-12T07:52:57.032Z,25.00
2018-10-12T07:55:30.241Z,24.03
2018-10-12T07:58:03.703Z,23.00
2018-10-12T08:00:36.794Z,22.33
2018-10-12T08:03:13.899Z,22.30
2018-10-12T08:05:49.159Z,23.13
2018-10-12T08:08:24.159Z,23.13
2018-10-12T08:10:58.310Z,22.40
2018-10-12T08:20:10.110Z,22.00
2018-10-12T08:22:43.162Z,22.20
2018-10-12T08:25:16.297Z,21.30
2018-10-12T08:27:49.273Z,21.20
2018-10-12T08:30:22.064Z,21.57
2018-10-12T08:36:15.581Z,21.30
2018-10-12T08:38:48.573Z,22.27
2018-10-12T08:41:21.890Z,22.63
2018-10-12T08:43:55.160Z,23.17
2018-10-12T08:46:28.385Z,25.23
2018-10-12T08:49:01.393Z,24.67
2018-10-12T08:51:34.609Z,27.60
2018-10-12T08:54:07.825Z,29.83
2018-10-12T08:56:41.279Z,32.77
2018-10-12T08:59:14.432Z,32.50
2018-10-12T09:01:47.365Z,32.37
2018-10-12T09:04:20.525Z,32.03
2018-10-12T09:06:53.860Z,32.97
2018-10-12T09:09:26.951Z,31.60
2018-10-12T09:12:00.059Z,32.67
2018-10-12T09:14:33.144Z,31.60
2018-10-12T09:17:07.780Z,29.10
2018-10-12T09:19:40.907Z,34.27
2018-10-12T09:22:14.282Z,33.93
2018-10-12T09:24:47.388Z,36.60
2018-10-12T09:27:20.514Z,43.93
2018-10-12T09:29:53.581Z,46.83
2018-10-12T09:32:26.773Z,53.13
2018-10-12T09:35:00.067Z,48.87
2018-10-12T09:37:33.248Z,48.43
2018-10-12T09:40:06.346Z,46.47
2018-10-12T09:42:39.431Z,43.63
2018-10-12T09:45:12.587Z,42.93
2018-10-12T09:47:45.716Z,40.23
2018-10-12T09:50:18.828Z,42.17
2018-10-12T09:52:52.371Z,38.63
2018-10-12T09:55:25.670Z,43.57
2018-10-12T09:57:59.162Z,45.00
2018-10-12T10:00:36.422Z,45.37
2018-10-12T10:03:14.085Z,43.97
2018-10-12T10:05:47.364Z,42.47
2018-10-12T10:08:20.416Z,38.40
2018-10-12T10:10:52.806Z,39.73
2018-10-12T10:13:25.599Z,40.63
2018-10-12T10:15:58.113Z,42.80
2018-10-12T10:18:31.350Z,42.63
2018-10-12T10:21:04.306Z,45.60
2018-10-12T10:23:37.253Z,49.03
2018-10-12T10:26:09.730Z,47.97
2018-10-12T10:28:42.020Z,47.43
2018-10-12T10:31:14.937Z,44.23
2018-10-12T10:33:48.228Z,39.83
2018-10-12T10:36:21.145Z,40.90
2018-10-12T10:38:54.274Z,42.30
2018-10-12T10:41:26.685Z,46.57
2018-10-12T10:43:58.969Z,45.67
2018-10-12T10:46:31.305Z,48.17
2018-10-12T10:49:03.500Z,41.13
2018-10-12T10:51:36.190Z,42.67
2018-10-12T10:54:08.396Z,42.17
2018-10-12T10:56:41.101Z,42.87
2018-10-12T10:59:14.149Z,40.07
2018-10-12T11:01:46.911Z,38.10
2018-10-12T11:04:19.301Z,36.37
2018-10-12T11:06:51.601Z,36.93
2018-10-12T11:10:04.175Z,35.23
2018-10-12T11:12:36.956Z,38.63
2018-10-12T11:15:10.159Z,168.80
2018-10-12T11:17:43.153Z,89.93
2018-10-12T11:20:16.188Z,43.30
2018-10-12T11:22:49.156Z,34.43
2018-10-12T11:25:21.681Z,31.90
2018-10-12T11:27:54.448Z,33.30
2018-10-12T11:30:27.303Z,31.17
2018-10-12T11:33:00.200Z,26.03
2018-10-12T11:35:33.086Z,24.40
2018-10-12T11:38:05.797Z,25.13
2018-10-12T11:40:39.011Z,27.87
2018-10-12T11:43:35.287Z,20.90
2018-10-12T11:46:08.408Z,32.53
2018-10-12T11:48:41.516Z,22.13
2018-10-12T11:51:14.415Z,43.90
2018-10-12T11:53:47.372Z,58.07
2018-10-12T11:56:20.141Z,54.60
2018-10-12T11:58:52.845Z,52.87
2018-10-12T12:01:26.148Z,56.63
2018-10-12T12:04:00.536Z,57.63
2018-10-12T12:06:40.900Z,58.93
2018-10-12T12:09:13.977Z,55.47
2018-10-12T12:11:48.377Z,74.77
2018-10-12T12:14:21.408Z,60.70
2018-10-12T12:16:53.964Z,58.13
2018-10-12T12:19:26.811Z,60.67
2018-10-12T12:22:00.972Z,62.30
2018-10-12T12:24:34.177Z,65.63
2018-10-12T12:27:10.131Z,69.57
2018-10-12T12:29:43.879Z,66.00
2018-10-12T12:35:37.259Z,64.90
2018-10-12T12:38:13.984Z,61.57
2018-10-12T12:40:49.743Z,62.30
2018-10-12T12:43:24.196Z,61.60
2018-10-12T12:45:59.088Z,63.27
2018-10-12T12:48:33.771Z,60.70
2018-10-12T12:51:08.270Z,62.37
2018-10-12T12:53:43.079Z,61.77
2018-10-12T12:56:17.984Z,61.07
2018-10-12T12:58:52.554Z,65.17
2018-10-12T13:01:27.231Z,62.53
2018-10-12T13:04:00.660Z,58.13
2018-10-12T13:06:33.460Z,55.93
2018-10-12T13:09:06.970Z,51.90
2018-10-12T13:11:40.084Z,54.37
2018-10-12T13:14:12.885Z,51.60
2018-10-12T13:16:46.678Z,46.77
2018-10-12T13:19:19.328Z,51.50
2018-10-12T13:21:52.083Z,45.67
2018-10-12T13:27:13.260Z,31.13
2018-10-12T13:29:49.492Z,38.67
2018-10-12T13:35:58.455Z,31.07
2018-10-12T13:38:33.579Z,32.77
2018-10-12T13:41:06.517Z,32.47
2018-10-12T13:43:38.920Z,28.67
2018-10-12T13:46:11.740Z,27.17
2018-10-12T13:48:44.783Z,22.70
2018-10-12T13:54:39.551Z,22.20
2018-10-12T13:57:12.671Z,24.33
2018-10-12T13:59:45.636Z,20.10
2018-10-12T14:02:18.365Z,18.00
2018-10-12T14:04:50.980Z,18.13
2018-10-12T14:07:24.204Z,31.00
2018-10-12T14:09:57.424Z,23.10
2018-10-12T14:12:30.281Z,26.23
2018-10-12T14:15:03.634Z,27.20
2018-10-12T14:17:36.071Z,27.13
2018-10-12T14:20:09.268Z,29.37
2018-10-12T14:22:42.679Z,32.40
2018-10-12T14:25:15.946Z,28.53
2018-10-12T14:27:49.279Z,26.80
2018-10-12T14:30:21.773Z,33.83
2018-10-12T14:32:55.824Z,34.03
2018-10-12T14:35:28.424Z,37.20
2018-10-12T14:38:01.532Z,32.87
2018-10-12T14:40:34.479Z,20.17
2018-10-12T14:43:07.208Z,13.53
2018-10-12T14:45:39.664Z,14.67
2018-10-12T14:48:13.485Z,12.17
2018-10-12T14:50:46.272Z,12.47
2018-10-12T14:53:18.852Z,11.30
2018-10-12T14:55:51.514Z,13.13
2018-10-12T14:58:24.266Z,10.45
2018-10-12T15:00:56.856Z,12.78
2018-10-12T15:03:34.937Z,11.80
2018-10-12T15:06:07.998Z,10.03
2018-10-12T15:08:41.432Z,11.97
2018-10-12T15:11:17.760Z,10.82
2018-10-12T15:13:50.213Z,9.03
2018-10-12T15:16:22.970Z,11.68
2018-10-12T15:18:56.107Z,9.38
2018-10-12T15:21:29.394Z,9.40
2018-10-12T15:24:02.298Z,18.52
2018-10-12T15:26:35.996Z,18.82
2018-10-12T15:29:08.576Z,15.30
2018-10-12T15:31:41.855Z,19.27
2018-10-12T15:34:14.918Z,12.30
2018-10-12T15:36:52.699Z,7.53
2018-10-12T15:46:20.660Z,28.02
2018-10-12T15:48:54.199Z,8.83
2018-10-12T15:51:27.016Z,9.28
2018-10-12T15:54:00.860Z,12.68
2018-10-12T15:56:36.319Z,9.83
2018-10-12T15:59:10.040Z,8.63
2018-10-12T16:01:44.483Z,10.05
2018-10-12T16:04:19.201Z,6.97
2018-10-12T16:06:54.375Z,7.72
2018-10-12T16:09:30.203Z,6.20
2018-10-12T16:12:05.767Z,7.22
2018-10-12T16:14:43.744Z,7.85
2018-10-12T16:17:29.808Z,7.58
2018-10-12T16:20:03.635Z,5.08
2018-10-12T16:22:36.826Z,7.62
2018-10-12T16:25:18.676Z,5.95
2018-10-12T16:27:51.587Z,8.48
2018-10-12T16:30:24.429Z,8.80
2018-10-12T16:32:58.038Z,7.08
2018-10-12T16:35:30.794Z,6.60
2018-10-12T16:38:04.485Z,5.50
2018-10-12T16:40:39.427Z,6.70
2018-10-12T16:43:12.252Z,6.65
2018-10-12T16:45:45.083Z,5.80
2018-10-12T16:48:18.617Z,9.38
2018-10-12T16:50:55.024Z,6.97
2018-10-12T16:53:30.447Z,6.00
2018-10-12T16:56:04.749Z,5.75
2018-10-12T16:58:37.561Z,6.65
2018-10-12T17:01:10.536Z,6.47
2018-10-12T17:03:43.986Z,6.00
2018-10-12T17:06:18.409Z,15.68
2018-10-12T17:08:51.271Z,11.68
2018-10-12T17:11:24.291Z,6.97
2018-10-12T17:13:57.857Z,12.35
2018-10-12T17:16:31.996Z,70.17
2018-10-12T17:19:04.838Z,42.58
2018-10-12T17:21:37.825Z,9.35
2018-10-12T17:24:10.633Z,8.13
2018-10-12T17:26:46.069Z,14.68
2018-10-12T17:29:19.230Z,10.35
2018-10-12T17:31:52.431Z,20.75
2018-10-12T17:34:26.050Z,8.98
2018-10-12T17:37:00.302Z,12.93
2018-10-12T17:39:33.908Z,26.80
2018-10-12T17:42:15.476Z,9.00
2018-10-12T17:44:51.361Z,10.25
2018-10-12T17:47:25.791Z,10.32
2018-10-12T17:50:10.910Z,9.28
2018-10-12T17:52:46.616Z,8.55
2018-10-12T17:55:29.748Z,8.48
2018-10-12T17:58:03.291Z,8.83
2018-10-12T18:00:36.480Z,10.35
2018-10-12T18:03:10.807Z,10.00
2018-10-12T18:05:43.935Z,11.68
2018-10-12T18:08:16.773Z,8.53
2018-10-12T18:11:25.882Z,8.40
2018-10-12T18:13:58.248Z,7.40
2018-10-12T18:16:31.272Z,9.10
2018-10-12T18:19:05.059Z,9.08
2018-10-12T18:21:39.109Z,8.73
2018-10-12T18:24:13.898Z,10.93
2018-10-12T18:26:47.654Z,16.10
2018-10-12T18:29:24.057Z,10.00
2018-10-12T18:32:00.453Z,11.00
2018-10-12T18:34:35.063Z,9.65
2018-10-12T18:37:11.956Z,8.15
2018-10-12T18:39:46.202Z,10.60
2018-10-12T18:42:21.478Z,27.30
2018-10-12T18:44:56.949Z,21.75
2018-10-12T18:47:34.963Z,12.98
2018-10-12T18:50:18.418Z,17.55
2018-10-12T18:56:29.579Z,10.53
2018-10-12T18:59:06.657Z,12.58
2018-10-12T19:01:44.369Z,13.05
2018-10-12T19:04:20.691Z,9.58
2018-10-12T19:06:56.721Z,11.55
2018-10-12T19:09:31.504Z,10.00
2018-10-12T19:12:10.477Z,11.18
2018-10-12T19:14:45.269Z,72.08
2018-10-12T19:17:19.154Z,60.38
2018-10-12T19:19:52.445Z,9.70
2018-10-12T19:22:25.805Z,67.55
2018-10-12T19:25:05.916Z,41.42
2018-10-12T19:27:40.461Z,54.53
2018-10-12T19:30:13.421Z,20.52
2018-10-12T19:32:46.202Z,58.13
2018-10-12T19:35:21.272Z,12.20
2018-10-12T19:37:54.251Z,9.68
2018-10-12T19:40:27.726Z,18.85
2018-10-12T19:43:00.823Z,9.58
2018-10-12T19:45:41.449Z,9.80
2018-10-12T19:48:18.705Z,13.10
2018-10-12T19:50:54.341Z,12.95
2018-10-12T19:54:01.164Z,17.50
2018-10-12T19:56:42.717Z,13.25
2018-10-12T19:59:17.536Z,12.23
2018-10-12T20:01:50.478Z,10.35
2018-10-12T20:04:26.562Z,12.70
2018-10-12T20:07:02.941Z,10.00
2018-10-12T20:09:38.463Z,9.45
2018-10-12T20:12:13.781Z,9.73
2018-10-12T20:14:49.219Z,9.23
2018-10-12T20:17:24.793Z,9.05
2018-10-12T20:19:59.828Z,11.03
2018-10-12T20:22:35.977Z,10.75
2018-10-12T20:25:11.416Z,12.85
2018-10-12T20:27:48.523Z,10.03
2018-10-12T20:30:28.458Z,35.20
2018-10-12T20:33:04.633Z,13.70
2018-10-12T20:35:37.536Z,10.60
2018-10-12T20:38:10.560Z,43.50
2018-10-12T20:40:46.862Z,11.50
2018-10-12T20:43:20.448Z,38.05
2018-10-12T20:45:56.598Z,12.23
2018-10-12T20:51:58.890Z,12.43
2018-10-12T20:54:36.979Z,8.30
2018-10-12T20:57:18.679Z,9.05
2018-10-12T20:59:53.863Z,12.55
2018-10-12T21:02:32.169Z,15.68
2018-10-12T21:05:07.082Z,22.75
2018-10-12T21:07:42.773Z,8.25
2018-10-12T21:10:19.135Z,8.00
2018-10-12T21:12:54.692Z,9.90
2018-10-12T21:15:31.429Z,7.67
2018-10-12T21:18:08.295Z,9.43
2018-10-12T21:24:05.377Z,6.83
2018-10-12T21:26:40.342Z,15.20
2018-10-12T21:29:16.348Z,7.43
2018-10-12T21:31:53.332Z,6.73
2018-10-12T21:34:31.840Z,8.00
2018-10-12T21:37:12.558Z,7.90
2018-10-12T21:39:47.132Z,9.10
2018-10-12T21:42:22.387Z,13.30
2018-10-12T21:44:55.784Z,19.87
2018-10-12T21:47:29.296Z,18.43
2018-10-12T21:50:03.121Z,34.50
2018-10-12T21:52:36.864Z,40.97
2018-10-12T21:55:10.682Z,61.77
2018-10-12T21:57:44.494Z,93.77
2018-10-12T22:00:18.700Z,48.13
2018-10-12T22:02:52.800Z,67.97
2018-10-12T22:05:27.004Z,5.83
2018-10-12T22:08:00.085Z,7.23
2018-10-12T22:10:32.883Z,10.50
2018-10-12T22:13:06.595Z,12.43
2018-10-12T22:15:39.638Z,7.90
2018-10-12T22:18:13.103Z,10.80
2018-10-12T22:20:46.224Z,13.77
2018-10-12T22:23:44.461Z,10.07
2018-10-12T22:26:17.476Z,6.90
2018-10-12T22:28:50.428Z,5.93
2018-10-12T22:34:51.079Z,5.57
2018-10-12T22:40:45.706Z,5.33
2018-10-12T22:43:18.983Z,5.87
2018-10-12T22:49:15.512Z,6.90
2018-10-12T22:51:49.164Z,11.33
2018-10-12T22:54:22.828Z,6.73
2018-10-12T22:56:57.137Z,14.37
2018-10-12T22:59:30.750Z,8.87
2018-10-12T23:02:10.023Z,13.00
2018-10-12T23:08:06.207Z,10.93
2018-10-12T23:10:40.227Z,8.00
2018-10-12T23:13:14.925Z,128.13
2018-10-12T23:15:49.425Z,11.13
2018-10-12T23:18:23.420Z,6.97
2018-10-12T23:20:57.156Z,8.57
2018-10-12T23:23:32.633Z,10.47
2018-10-12T23:26:06.683Z,5.57
2018-10-12T23:28:40.668Z,4.83
2018-10-12T23:31:13.927Z,5.27
2018-10-12T23:33:56.885Z,11.70
2018-10-12T23:36:30.042Z,5.60
2018-10-12T23:39:04.047Z,5.07
2018-10-12T23:41:38.262Z,7.10
2018-10-12T23:44:11.479Z,5.83
2018-10-12T23:46:44.754Z,5.90
2018-10-12T23:49:18.280Z,5.40
2018-10-12T23:51:51.874Z,6.33
2018-10-12T23:54:26.532Z,5.13
2018-10-12T23:56:59.862Z,6.23
2018-10-12T23:59:36.463Z,6.70
